sensor_id;sensor_type;location;lat;lon;timestamp;noise_LAeq;noise_LA_min;noise_LA_max;noise_LA01;noise_LA95
37223;Laerm;28026;48.562;14.440;2022-07-31T00:02:16;36.56;28.67;40.53;;
37223;Laerm;28026;48.562;14.440;2022-07-31T00:04:47;36.87;23.90;41.22;;
37223;Laerm;28026;48.562;14.440;2022-07-31T00:07:17;36.77;30.89;42.30;;
37223;Laerm;28026;48.562;14.440;2022-07-31T00:09:48;36.47;30.89;39.46;;
37223;Laerm;28026;48.562;14.440;2022-07-31T00:12:21;37.88;30.89;44.69;;
37223;Laerm;28026;48.562;14.440;2022-07-31T00:14:53;36.77;30.89;40.89;;
37223;Laerm;28026;48.562;14.440;2022-07-31T00:17:24;37.38;30.89;64.09;;
37223;Laerm;28026;48.562;14.440;2022-07-31T00:19:55;36.79;29.92;54.04;;
37223;Laerm;28026;48.562;14.440;2022-07-31T00:22:26;37.14;28.67;43.77;;
37223;Laerm;28026;48.562;14.440;2022-07-31T00:24:57;37.49;31.68;43.86;;
37223;Laerm;28026;48.562;14.440;2022-07-31T00:27:28;36.53;29.92;39.70;;
37223;Laerm;28026;48.562;14.440;2022-07-31T00:29:59;36.80;30.89;41.82;;
37223;Laerm;28026;48.562;14.440;2022-07-31T00:32:30;36.53;28.67;39.81;;
37223;Laerm;28026;48.562;14.440;2022-07-31T00:35:01;38.29;29.92;48.15;;
37223;Laerm;28026;48.562;14.440;2022-07-31T00:37:36;36.79;31.68;41.06;;
37223;Laerm;28026;48.562;14.440;2022-07-31T00:40:10;36.55;30.89;39.46;;
37223;Laerm;28026;48.562;14.440;2022-07-31T00:42:43;36.62;30.89;39.81;;
37223;Laerm;28026;48.562;14.440;2022-07-31T00:45:14;37.53;28.67;44.54;;
37223;Laerm;28026;48.562;14.440;2022-07-31T00:47:45;40.00;32.35;49.83;;
37223;Laerm;28026;48.562;14.440;2022-07-31T00:50:16;36.61;26.91;43.29;;
37223;Laerm;28026;48.562;14.440;2022-07-31T00:52:47;38.75;28.67;46.07;;
37223;Laerm;28026;48.562;14.440;2022-07-31T00:55:17;36.93;29.92;40.89;;
37223;Laerm;28026;48.562;14.440;2022-07-31T00:57:49;38.12;32.93;43.29;;
37223;Laerm;28026;48.562;14.440;2022-07-31T01:00:20;36.68;31.68;40.53;;
37223;Laerm;28026;48.562;14.440;2022-07-31T01:02:52;36.59;28.67;39.81;;
37223;Laerm;28026;48.562;14.440;2022-07-31T01:05:24;36.78;30.89;59.97;;
37223;Laerm;28026;48.562;14.440;2022-07-31T01:07:55;37.50;30.89;42.59;;
37223;Laerm;28026;48.562;14.440;2022-07-31T01:10:57;37.02;30.89;40.80;;
37223;Laerm;28026;48.562;14.440;2022-07-31T01:13:51;36.68;28.67;41.53;;
37223;Laerm;28026;48.562;14.440;2022-07-31T01:16:29;36.65;30.89;50.63;;
37223;Laerm;28026;48.562;14.440;2022-07-31T01:19:24;40.07;32.93;44.39;;
37223;Laerm;28026;48.562;14.440;2022-07-31T01:29:12;37.44;29.92;43.09;;
37223;Laerm;28026;48.562;14.440;2022-07-31T01:32:14;37.09;30.89;41.22;;
37223;Laerm;28026;48.562;14.440;2022-07-31T01:35:16;37.92;29.92;51.51;;
37223;Laerm;28026;48.562;14.440;2022-07-31T01:37:52;37.63;30.89;52.68;;
37223;Laerm;28026;48.562;14.440;2022-07-31T01:40:41;36.53;30.54;44.11;;
37223;Laerm;28026;48.562;14.440;2022-07-31T01:43:28;37.97;29.92;43.29;;
37223;Laerm;28026;48.562;14.440;2022-07-31T01:46:03;38.06;32.35;44.03;;
37223;Laerm;28026;48.562;14.440;2022-07-31T01:48:36;36.84;28.67;40.62;;
37223;Laerm;28026;48.562;14.440;2022-07-31T01:51:12;36.66;30.89;40.33;;
37223;Laerm;28026;48.562;14.440;2022-07-31T01:53:47;36.56;30.89;39.58;;
37223;Laerm;28026;48.562;14.440;2022-07-31T01:56:21;36.59;30.89;40.43;;
37223;Laerm;28026;48.562;14.440;2022-07-31T01:58:55;38.71;32.93;45.07;;
37223;Laerm;28026;48.562;14.440;2022-07-31T02:01:29;39.59;33.44;46.91;;
37223;Laerm;28026;48.562;14.440;2022-07-31T02:04:01;37.61;32.35;40.33;;
37223;Laerm;28026;48.562;14.440;2022-07-31T02:06:34;37.64;30.89;40.71;;
37223;Laerm;28026;48.562;14.440;2022-07-31T02:09:06;37.67;31.68;41.14;;
37223;Laerm;28026;48.562;14.440;2022-07-31T02:11:37;37.94;33.44;42.03;;
37223;Laerm;28026;48.562;14.440;2022-07-31T02:14:09;38.34;33.44;42.35;;
37223;Laerm;28026;48.562;14.440;2022-07-31T02:16:40;37.74;32.93;40.80;;
37223;Laerm;28026;48.562;14.440;2022-07-31T02:19:13;41.06;33.90;45.33;;
37223;Laerm;28026;48.562;14.440;2022-07-31T02:21:44;38.46;30.89;42.58;;
37223;Laerm;28026;48.562;14.440;2022-07-31T02:24:15;37.94;33.44;40.89;;
37223;Laerm;28026;48.562;14.440;2022-07-31T02:26:47;40.81;32.93;54.90;;
37223;Laerm;28026;48.562;14.440;2022-07-31T02:29:20;41.35;33.90;50.23;;
37223;Laerm;28026;48.562;14.440;2022-07-31T02:31:54;37.42;30.89;42.71;;
37223;Laerm;28026;48.562;14.440;2022-07-31T02:34:29;37.29;30.89;44.03;;
37223;Laerm;28026;48.562;14.440;2022-07-31T02:37:03;37.50;32.93;42.82;;
37223;Laerm;28026;48.562;14.440;2022-07-31T02:39:37;36.78;30.54;44.51;;
37223;Laerm;28026;48.562;14.440;2022-07-31T02:42:09;36.58;28.67;42.65;;
37223;Laerm;28026;48.562;14.440;2022-07-31T02:44:40;36.56;30.89;44.54;;
37223;Laerm;28026;48.562;14.440;2022-07-31T02:47:13;36.69;29.92;44.83;;
37223;Laerm;28026;48.562;14.440;2022-07-31T02:49:44;37.30;29.92;43.77;;
37223;Laerm;28026;48.562;14.440;2022-07-31T02:52:16;41.39;31.68;47.86;;
37223;Laerm;28026;48.562;14.440;2022-07-31T02:54:49;38.26;31.68;44.87;;
37223;Laerm;28026;48.562;14.440;2022-07-31T02:57:20;36.80;28.67;42.98;;
37223;Laerm;28026;48.562;14.440;2022-07-31T02:59:51;41.82;31.68;49.03;;
37223;Laerm;28026;48.562;14.440;2022-07-31T03:02:22;41.59;33.90;49.40;;
37223;Laerm;28026;48.562;14.440;2022-07-31T03:04:53;36.96;30.89;45.01;;
37223;Laerm;28026;48.562;14.440;2022-07-31T03:07:24;37.02;30.89;43.81;;
37223;Laerm;28026;48.562;14.440;2022-07-31T03:09:55;39.20;30.89;45.07;;
37223;Laerm;28026;48.562;14.440;2022-07-31T03:12:27;39.03;32.35;43.94;;
37223;Laerm;28026;48.562;14.440;2022-07-31T03:14:59;37.19;30.89;48.71;;
37223;Laerm;28026;48.562;14.440;2022-07-31T03:17:32;42.97;31.68;52.89;;
37223;Laerm;28026;48.562;14.440;2022-07-31T03:20:06;39.27;32.35;46.10;;
37223;Laerm;28026;48.562;14.440;2022-07-31T03:22:38;36.71;30.89;44.94;;
37223;Laerm;28026;48.562;14.440;2022-07-31T03:25:10;36.96;30.54;43.39;;
37223;Laerm;28026;48.562;14.440;2022-07-31T03:27:41;39.56;32.35;44.69;;
37223;Laerm;28026;48.562;14.440;2022-07-31T03:30:17;36.62;30.89;39.34;;
37223;Laerm;28026;48.562;14.440;2022-07-31T03:32:48;36.68;30.89;39.70;;
37223;Laerm;28026;48.562;14.440;2022-07-31T03:35:20;36.79;30.54;41.82;;
37223;Laerm;28026;48.562;14.440;2022-07-31T03:37:51;37.38;31.68;50.52;;
37223;Laerm;28026;48.562;14.440;2022-07-31T03:40:22;38.47;30.89;50.78;;
37223;Laerm;28026;48.562;14.440;2022-07-31T03:42:55;40.27;32.35;52.87;;
37223;Laerm;28026;48.562;14.440;2022-07-31T03:45:29;38.23;31.68;56.14;;
37223;Laerm;28026;48.562;14.440;2022-07-31T03:48:01;37.33;29.92;49.33;;
37223;Laerm;28026;48.562;14.440;2022-07-31T03:50:36;38.47;32.93;45.80;;
37223;Laerm;28026;48.562;14.440;2022-07-31T03:53:08;38.14;31.68;55.70;;
37223;Laerm;28026;48.562;14.440;2022-07-31T03:55:40;38.00;31.68;56.09;;
37223;Laerm;28026;48.562;14.440;2022-07-31T03:58:14;40.94;31.68;49.97;;
37223;Laerm;28026;48.562;14.440;2022-07-31T04:00:45;39.45;31.68;59.30;;
37223;Laerm;28026;48.562;14.440;2022-07-31T04:03:16;39.48;32.35;62.46;;
37223;Laerm;28026;48.562;14.440;2022-07-31T04:05:47;37.03;31.68;46.50;;
37223;Laerm;28026;48.562;14.440;2022-07-31T04:08:18;41.35;31.68;50.56;;
37223;Laerm;28026;48.562;14.440;2022-07-31T04:10:49;38.94;31.68;53.34;;
37223;Laerm;28026;48.562;14.440;2022-07-31T04:13:20;43.17;36.20;50.04;;
37223;Laerm;28026;48.562;14.440;2022-07-31T04:15:51;39.35;33.90;50.29;;
37223;Laerm;28026;48.562;14.440;2022-07-31T04:18:22;37.36;32.35;41.75;;
37223;Laerm;28026;48.562;14.440;2022-07-31T04:20:53;37.14;32.35;41.68;;
37223;Laerm;28026;48.562;14.440;2022-07-31T04:23:24;40.59;32.93;44.39;;
37223;Laerm;28026;48.562;14.440;2022-07-31T04:25:56;40.36;33.44;52.10;;
37223;Laerm;28026;48.562;14.440;2022-07-31T04:28:27;42.29;34.31;52.39;;
37223;Laerm;28026;48.562;14.440;2022-07-31T04:30:58;37.80;32.93;43.49;;
37223;Laerm;28026;48.562;14.440;2022-07-31T04:33:29;37.11;32.35;41.06;;
37223;Laerm;28026;48.562;14.440;2022-07-31T04:36:00;43.00;33.44;55.23;;
37223;Laerm;28026;48.562;14.440;2022-07-31T04:38:31;41.63;35.94;45.54;;
37223;Laerm;28026;48.562;14.440;2022-07-31T04:41:02;42.73;36.20;48.23;;
37223;Laerm;28026;48.562;14.440;2022-07-31T04:43:33;40.64;33.90;45.14;;
37223;Laerm;28026;48.562;14.440;2022-07-31T04:46:04;37.08;31.68;40.43;;
37223;Laerm;28026;48.562;14.440;2022-07-31T04:48:35;39.34;31.68;44.54;;
37223;Laerm;28026;48.562;14.440;2022-07-31T04:51:06;40.23;32.93;45.39;;
37223;Laerm;28026;48.562;14.440;2022-07-31T04:53:37;40.70;32.93;50.23;;
37223;Laerm;28026;48.562;14.440;2022-07-31T04:56:08;39.21;31.68;43.81;;
37223;Laerm;28026;48.562;14.440;2022-07-31T04:59:05;40.39;33.90;45.91;;
37223;Laerm;28026;48.562;14.440;2022-07-31T05:01:39;40.66;33.44;48.43;;
37223;Laerm;28026;48.562;14.440;2022-07-31T05:04:10;38.89;32.35;49.89;;
37223;Laerm;28026;48.562;14.440;2022-07-31T05:06:49;37.53;32.93;43.42;;
37223;Laerm;28026;48.562;14.440;2022-07-31T05:09:23;37.36;32.93;48.25;;
37223;Laerm;28026;48.562;14.440;2022-07-31T05:11:54;40.13;32.35;50.34;;
37223;Laerm;28026;48.562;14.440;2022-07-31T05:14:25;39.22;34.31;43.86;;
37223;Laerm;28026;48.562;14.440;2022-07-31T05:16:56;37.60;33.44;55.57;;
37223;Laerm;28026;48.562;14.440;2022-07-31T05:19:27;39.09;33.44;56.95;;
37223;Laerm;28026;48.562;14.440;2022-07-31T05:21:59;39.47;33.90;47.90;;
37223;Laerm;28026;48.562;14.440;2022-07-31T05:24:31;42.37;34.31;68.59;;
37223;Laerm;28026;48.562;14.440;2022-07-31T05:27:04;38.64;33.44;59.52;;
37223;Laerm;28026;48.562;14.440;2022-07-31T05:29:35;43.32;34.69;52.19;;
37223;Laerm;28026;48.562;14.440;2022-07-31T05:32:06;40.33;33.44;45.66;;
37223;Laerm;28026;48.562;14.440;2022-07-31T05:34:37;37.58;32.93;40.53;;
37223;Laerm;28026;48.562;14.440;2022-07-31T05:37:08;37.24;31.68;40.71;;
37223;Laerm;28026;48.562;14.440;2022-07-31T05:39:39;37.71;33.44;40.71;;
37223;Laerm;28026;48.562;14.440;2022-07-31T05:42:10;38.20;32.93;43.81;;
37223;Laerm;28026;48.562;14.440;2022-07-31T05:44:41;37.46;31.68;46.20;;
37223;Laerm;28026;48.562;14.440;2022-07-31T05:47:12;39.45;32.93;43.72;;
37223;Laerm;28026;48.562;14.440;2022-07-31T05:49:43;39.85;33.90;44.31;;
37223;Laerm;28026;48.562;14.440;2022-07-31T05:52:17;38.38;32.93;50.86;;
37223;Laerm;28026;48.562;14.440;2022-07-31T05:54:48;42.04;33.90;45.69;;
37223;Laerm;28026;48.562;14.440;2022-07-31T05:57:18;39.80;35.94;43.39;;
37223;Laerm;28026;48.562;14.440;2022-07-31T05:59:49;39.29;35.66;45.36;;
37223;Laerm;28026;48.562;14.440;2022-07-31T06:02:20;40.08;35.66;45.72;;
37223;Laerm;28026;48.562;14.440;2022-07-31T06:04:51;39.99;36.20;52.87;;
37223;Laerm;28026;48.562;14.440;2022-07-31T06:07:22;40.30;35.66;51.88;;
37223;Laerm;28026;48.562;14.440;2022-07-31T06:09:54;41.38;37.32;51.68;;
37223;Laerm;28026;48.562;14.440;2022-07-31T06:12:24;40.70;36.45;54.82;;
37223;Laerm;28026;48.562;14.440;2022-07-31T06:14:55;41.29;35.36;58.29;;
37223;Laerm;28026;48.562;14.440;2022-07-31T06:17:26;40.47;35.36;67.55;;
37223;Laerm;28026;48.562;14.440;2022-07-31T06:19:57;40.29;36.45;52.09;;
37223;Laerm;28026;48.562;14.440;2022-07-31T06:22:28;40.95;36.45;51.92;;
37223;Laerm;28026;48.562;14.440;2022-07-31T06:25:00;40.82;36.69;53.35;;
37223;Laerm;28026;48.562;14.440;2022-07-31T06:27:31;41.36;37.70;49.88;;
37223;Laerm;28026;48.562;14.440;2022-07-31T06:30:07;40.09;36.45;57.55;;
37223;Laerm;28026;48.562;14.440;2022-07-31T06:32:38;40.15;35.94;53.57;;
37223;Laerm;28026;48.562;14.440;2022-07-31T06:35:09;40.29;36.20;54.71;;
37223;Laerm;28026;48.562;14.440;2022-07-31T06:37:40;39.88;35.94;57.31;;
37223;Laerm;28026;48.562;14.440;2022-07-31T06:40:12;40.29;35.94;56.23;;
37223;Laerm;28026;48.562;14.440;2022-07-31T06:42:43;42.23;37.88;53.41;;
37223;Laerm;28026;48.562;14.440;2022-07-31T06:45:14;42.13;36.45;62.31;;
37223;Laerm;28026;48.562;14.440;2022-07-31T06:47:45;41.97;36.45;64.90;;
37223;Laerm;28026;48.562;14.440;2022-07-31T06:50:17;43.52;36.20;64.26;;
37223;Laerm;28026;48.562;14.440;2022-07-31T06:52:48;39.92;35.94;56.97;;
37223;Laerm;28026;48.562;14.440;2022-07-31T06:55:19;40.90;35.59;59.62;;
37223;Laerm;28026;48.562;14.440;2022-07-31T06:57:50;41.91;36.20;67.70;;
37223;Laerm;28026;48.562;14.440;2022-07-31T07:00:21;41.13;35.36;51.72;;
37223;Laerm;28026;48.562;14.440;2022-07-31T07:02:52;39.95;35.36;51.72;;
37223;Laerm;28026;48.562;14.440;2022-07-31T07:05:23;41.73;37.88;58.24;;
37223;Laerm;28026;48.562;14.440;2022-07-31T07:07:54;41.16;37.32;54.50;;
37223;Laerm;28026;48.562;14.440;2022-07-31T07:10:25;54.72;37.12;83.55;;
37223;Laerm;28026;48.562;14.440;2022-07-31T07:12:56;42.20;35.94;59.20;;
37223;Laerm;28026;48.562;14.440;2022-07-31T07:15:27;41.76;36.69;50.54;;
37223;Laerm;28026;48.562;14.440;2022-07-31T07:17:58;40.44;36.69;48.95;;
37223;Laerm;28026;48.562;14.440;2022-07-31T07:20:29;49.86;37.52;79.89;;
37223;Laerm;28026;48.562;14.440;2022-07-31T07:23:00;44.99;36.91;66.60;;
37223;Laerm;28026;48.562;14.440;2022-07-31T07:25:31;40.81;36.20;52.79;;
37223;Laerm;28026;48.562;14.440;2022-07-31T07:28:02;44.90;36.91;66.87;;
37223;Laerm;28026;48.562;14.440;2022-07-31T07:30:34;42.85;36.20;72.62;;
37223;Laerm;28026;48.562;14.440;2022-07-31T07:33:05;40.54;37.52;50.41;;
37223;Laerm;28026;48.562;14.440;2022-07-31T07:35:37;64.54;37.70;85.14;;
37223;Laerm;28026;48.562;14.440;2022-07-31T07:38:08;63.52;37.88;83.68;;
37223;Laerm;28026;48.562;14.440;2022-07-31T07:40:39;56.16;37.12;79.57;;
37223;Laerm;28026;48.562;14.440;2022-07-31T07:43:10;53.94;36.34;77.79;;
37223;Laerm;28026;48.562;14.440;2022-07-31T07:45:41;44.50;36.91;70.25;;
37223;Laerm;28026;48.562;14.440;2022-07-31T07:48:12;56.17;37.32;81.69;;
37223;Laerm;28026;48.562;14.440;2022-07-31T07:50:43;56.29;38.05;76.58;;
37223;Laerm;28026;48.562;14.440;2022-07-31T07:53:14;48.37;36.20;74.97;;
37223;Laerm;28026;48.562;14.440;2022-07-31T07:55:45;45.44;36.45;69.63;;
37223;Laerm;28026;48.562;14.440;2022-07-31T07:58:15;47.84;37.70;68.66;;
37223;Laerm;28026;48.562;14.440;2022-07-31T08:00:46;46.39;37.52;73.59;;
37223;Laerm;28026;48.562;14.440;2022-07-31T08:03:17;46.00;36.69;69.17;;
37223;Laerm;28026;48.562;14.440;2022-07-31T08:05:48;43.09;37.12;62.93;;
37223;Laerm;28026;48.562;14.440;2022-07-31T08:08:19;48.56;36.45;72.69;;
37223;Laerm;28026;48.562;14.440;2022-07-31T08:10:50;45.02;38.47;67.23;;
37223;Laerm;28026;48.562;14.440;2022-07-31T08:13:21;48.24;38.67;70.63;;
37223;Laerm;28026;48.562;14.440;2022-07-31T08:15:52;44.65;37.88;67.03;;
37223;Laerm;28026;48.562;14.440;2022-07-31T08:18:23;47.07;39.08;66.18;;
37223;Laerm;28026;48.562;14.440;2022-07-31T08:20:54;43.12;37.88;59.96;;
37223;Laerm;28026;48.562;14.440;2022-07-31T08:23:25;46.36;38.67;70.50;;
37223;Laerm;28026;48.562;14.440;2022-07-31T08:25:57;46.73;38.67;69.03;;
37223;Laerm;28026;48.562;14.440;2022-07-31T08:28:27;57.63;37.52;79.66;;
37223;Laerm;28026;48.562;14.440;2022-07-31T08:30:59;47.21;38.81;66.07;;
37223;Laerm;28026;48.562;14.440;2022-07-31T08:33:30;45.85;38.95;69.91;;
37223;Laerm;28026;48.562;14.440;2022-07-31T08:36:02;43.81;38.37;61.15;;
37223;Laerm;28026;48.562;14.440;2022-07-31T08:38:37;48.35;38.52;71.67;;
37223;Laerm;28026;48.562;14.440;2022-07-31T08:41:12;46.08;38.05;72.37;;
37223;Laerm;28026;48.562;14.440;2022-07-31T08:43:44;50.58;37.52;78.25;;
37223;Laerm;28026;48.562;14.440;2022-07-31T08:46:16;44.01;38.21;59.19;;
37223;Laerm;28026;48.562;14.440;2022-07-31T08:48:55;46.01;38.81;76.81;;
37223;Laerm;28026;48.562;14.440;2022-07-31T08:51:28;42.41;38.21;58.18;;
37223;Laerm;28026;48.562;14.440;2022-07-31T08:54:08;44.52;37.88;64.61;;
37223;Laerm;28026;48.562;14.440;2022-07-31T08:56:42;44.24;37.52;65.09;;
37223;Laerm;28026;48.562;14.440;2022-07-31T08:59:13;43.48;38.21;60.39;;
37223;Laerm;28026;48.562;14.440;2022-07-31T09:01:47;46.66;38.21;70.56;;
37223;Laerm;28026;48.562;14.440;2022-07-31T09:04:18;47.09;38.67;75.61;;
37223;Laerm;28026;48.562;14.440;2022-07-31T09:06:49;46.31;36.20;66.64;;
37223;Laerm;28026;48.562;14.440;2022-07-31T09:09:20;48.50;36.20;71.04;;
37223;Laerm;28026;48.562;14.440;2022-07-31T09:11:51;51.68;38.21;73.34;;
37223;Laerm;28026;48.562;14.440;2022-07-31T09:14:33;53.14;36.20;77.95;;
37223;Laerm;28026;48.562;14.440;2022-07-31T09:17:05;59.60;35.36;86.68;;
37223;Laerm;28026;48.562;14.440;2022-07-31T09:19:45;51.45;35.36;74.04;;
37223;Laerm;28026;48.562;14.440;2022-07-31T09:22:28;42.22;34.31;71.81;;
37223;Laerm;28026;48.562;14.440;2022-07-31T09:25:26;53.33;35.04;76.77;;
37223;Laerm;28026;48.562;14.440;2022-07-31T09:28:06;62.95;35.94;90.35;;
37223;Laerm;28026;48.562;14.440;2022-07-31T09:30:38;58.98;36.45;85.29;;
37223;Laerm;28026;48.562;14.440;2022-07-31T09:33:17;53.54;35.94;85.44;;
37223;Laerm;28026;48.562;14.440;2022-07-31T09:35:51;52.20;39.08;77.66;;
37223;Laerm;28026;48.562;14.440;2022-07-31T09:38:35;68.35;37.12;101.01;;
37223;Laerm;28026;48.562;14.440;2022-07-31T09:41:14;53.30;36.45;80.27;;
37223;Laerm;28026;48.562;14.440;2022-07-31T09:44:01;45.20;36.69;64.69;;
37223;Laerm;28026;48.562;14.440;2022-07-31T09:46:45;51.02;34.31;83.42;;
37223;Laerm;28026;48.562;14.440;2022-07-31T09:49:17;39.34;32.35;56.03;;
37223;Laerm;28026;48.562;14.440;2022-07-31T09:51:48;41.73;34.69;60.64;;
37223;Laerm;28026;48.562;14.440;2022-07-31T09:54:26;44.69;32.35;68.19;;
37223;Laerm;28026;48.562;14.440;2022-07-31T09:57:09;54.71;34.69;78.72;;
37223;Laerm;28026;48.562;14.440;2022-07-31T09:59:41;41.33;33.90;60.28;;
37223;Laerm;28026;48.562;14.440;2022-07-31T10:02:13;40.43;34.69;53.08;;
37223;Laerm;28026;48.562;14.440;2022-07-31T10:04:48;39.00;32.35;46.43;;
37223;Laerm;28026;48.562;14.440;2022-07-31T10:07:23;39.04;31.68;51.34;;
37223;Laerm;28026;48.562;14.440;2022-07-31T10:09:57;42.43;35.66;53.07;;
37223;Laerm;28026;48.562;14.440;2022-07-31T10:12:33;44.48;37.12;59.16;;
37223;Laerm;28026;48.562;14.440;2022-07-31T10:15:11;41.40;34.69;47.02;;
37223;Laerm;28026;48.562;14.440;2022-07-31T10:17:51;38.28;32.93;49.59;;
37223;Laerm;28026;48.562;14.440;2022-07-31T10:20:25;39.15;31.68;51.27;;
37223;Laerm;28026;48.562;14.440;2022-07-31T10:23:10;40.54;33.90;45.63;;
37223;Laerm;28026;48.562;14.440;2022-07-31T10:25:51;40.78;34.31;46.91;;
37223;Laerm;28026;48.562;14.440;2022-07-31T10:28:24;40.95;35.36;45.83;;
37223;Laerm;28026;48.562;14.440;2022-07-31T10:30:56;40.19;33.44;48.83;;
37223;Laerm;28026;48.562;14.440;2022-07-31T10:33:28;40.91;33.90;46.78;;
37223;Laerm;28026;48.562;14.440;2022-07-31T10:36:32;40.61;33.90;52.90;;
37223;Laerm;28026;48.562;14.440;2022-07-31T10:39:29;43.23;33.44;60.10;;
37223;Laerm;28026;48.562;14.440;2022-07-31T10:42:48;38.42;32.93;43.68;;
37223;Laerm;28026;48.562;14.440;2022-07-31T10:45:21;40.36;32.35;46.05;;
37223;Laerm;28026;48.562;14.440;2022-07-31T10:48:00;43.16;36.45;55.77;;
37223;Laerm;28026;48.562;14.440;2022-07-31T10:50:32;39.73;32.93;44.69;;
37223;Laerm;28026;48.562;14.440;2022-07-31T10:53:14;37.71;31.68;42.53;;
37223;Laerm;28026;48.562;14.440;2022-07-31T10:55:45;41.33;33.09;52.83;;
37223;Laerm;28026;48.562;14.440;2022-07-31T10:58:17;40.09;32.35;50.22;;
37223;Laerm;28026;48.562;14.440;2022-07-31T11:00:52;41.48;35.66;53.66;;
37223;Laerm;28026;48.562;14.440;2022-07-31T11:03:45;38.72;33.44;60.52;;
37223;Laerm;28026;48.562;14.440;2022-07-31T11:06:17;39.04;30.89;60.97;;
37223;Laerm;28026;48.562;14.440;2022-07-31T11:08:53;40.73;32.93;45.07;;
37223;Laerm;28026;48.562;14.440;2022-07-31T11:11:33;39.61;33.90;43.24;;
37223;Laerm;28026;48.562;14.440;2022-07-31T11:14:06;38.98;32.93;48.16;;
37223;Laerm;28026;48.562;14.440;2022-07-31T11:16:52;39.07;32.35;57.29;;
37223;Laerm;28026;48.562;14.440;2022-07-31T11:19:39;39.49;30.89;44.15;;
37223;Laerm;28026;48.562;14.440;2022-07-31T11:22:14;37.70;31.68;44.58;;
37223;Laerm;28026;48.562;14.440;2022-07-31T11:24:55;38.73;32.93;50.06;;
37223;Laerm;28026;48.562;14.440;2022-07-31T11:27:33;39.77;32.93;56.63;;
37223;Laerm;28026;48.562;14.440;2022-07-31T11:30:07;38.87;30.89;48.55;;
37223;Laerm;28026;48.562;14.440;2022-07-31T11:32:40;37.97;30.89;43.19;;
37223;Laerm;28026;48.562;14.440;2022-07-31T11:35:11;42.52;32.35;54.43;;
37223;Laerm;28026;48.562;14.440;2022-07-31T11:37:43;41.72;34.69;47.40;;
37223;Laerm;28026;48.562;14.440;2022-07-31T11:40:14;40.59;34.69;48.16;;
37223;Laerm;28026;48.562;14.440;2022-07-31T11:42:45;38.77;32.35;49.51;;
37223;Laerm;28026;48.562;14.440;2022-07-31T11:45:17;39.03;32.93;60.54;;
37223;Laerm;28026;48.562;14.440;2022-07-31T11:47:49;39.39;34.31;54.61;;
37223;Laerm;28026;48.562;14.440;2022-07-31T11:50:21;40.18;32.93;60.19;;
37223;Laerm;28026;48.562;14.440;2022-07-31T11:53:02;38.72;32.35;57.20;;
37223;Laerm;28026;48.562;14.440;2022-07-31T11:56:06;37.91;26.91;56.21;;
37223;Laerm;28026;48.562;14.440;2022-07-31T11:58:37;37.28;32.35;44.19;;
37223;Laerm;28026;48.562;14.440;2022-07-31T12:01:11;37.22;32.35;48.96;;
37223;Laerm;28026;48.562;14.440;2022-07-31T12:03:45;39.76;34.69;55.99;;
37223;Laerm;28026;48.562;14.440;2022-07-31T12:06:19;42.70;35.94;54.58;;
37223;Laerm;28026;48.562;14.440;2022-07-31T12:08:51;40.35;33.90;50.95;;
37223;Laerm;28026;48.562;14.440;2022-07-31T12:11:22;38.68;32.93;46.69;;
37223;Laerm;28026;48.562;14.440;2022-07-31T12:13:53;38.40;32.93;50.95;;
37223;Laerm;28026;48.562;14.440;2022-07-31T12:16:25;38.40;32.35;42.93;;
37223;Laerm;28026;48.562;14.440;2022-07-31T12:18:57;39.95;33.90;44.51;;
37223;Laerm;28026;48.562;14.440;2022-07-31T12:21:37;40.93;35.04;46.69;;
37223;Laerm;28026;48.562;14.440;2022-07-31T12:24:12;40.62;33.90;52.26;;
37223;Laerm;28026;48.562;14.440;2022-07-31T12:26:55;42.02;35.04;59.17;;
37223;Laerm;28026;48.562;14.440;2022-07-31T12:29:36;40.21;32.35;56.53;;
37223;Laerm;28026;48.562;14.440;2022-07-31T12:32:07;39.42;32.93;51.71;;
37223;Laerm;28026;48.562;14.440;2022-07-31T12:34:41;40.15;34.31;55.61;;
37223;Laerm;28026;48.562;14.440;2022-07-31T12:37:16;42.47;34.69;65.97;;
37223;Laerm;28026;48.562;14.440;2022-07-31T12:39:52;42.30;36.91;61.27;;
37223;Laerm;28026;48.562;14.440;2022-07-31T12:42:34;47.31;36.45;72.49;;
37223;Laerm;28026;48.562;14.440;2022-07-31T12:45:08;47.08;37.12;70.58;;
37223;Laerm;28026;48.562;14.440;2022-07-31T12:47:40;44.85;38.52;67.12;;
37223;Laerm;28026;48.562;14.440;2022-07-31T12:50:11;47.90;37.70;73.40;;
37223;Laerm;28026;48.562;14.440;2022-07-31T12:52:42;53.66;37.52;81.78;;
37223;Laerm;28026;48.562;14.440;2022-07-31T12:55:13;58.30;37.70;85.99;;
37223;Laerm;28026;48.562;14.440;2022-07-31T12:57:47;56.17;37.52;83.94;;
37223;Laerm;28026;48.562;14.440;2022-07-31T13:00:25;50.62;36.45;78.61;;
37223;Laerm;28026;48.562;14.440;2022-07-31T13:02:56;55.35;37.32;85.74;;
37223;Laerm;28026;48.562;14.440;2022-07-31T13:05:27;54.55;37.52;81.99;;
37223;Laerm;28026;48.562;14.440;2022-07-31T13:07:59;41.72;36.69;66.06;;
37223;Laerm;28026;48.562;14.440;2022-07-31T13:10:30;46.75;36.91;68.94;;
37223;Laerm;28026;48.562;14.440;2022-07-31T13:13:01;61.61;38.67;89.43;;
37223;Laerm;28026;48.562;14.440;2022-07-31T13:15:32;58.66;38.52;87.87;;
37223;Laerm;28026;48.562;14.440;2022-07-31T13:18:03;60.78;38.67;87.16;;
37223;Laerm;28026;48.562;14.440;2022-07-31T13:20:34;61.33;38.67;89.04;;
37223;Laerm;28026;48.562;14.440;2022-07-31T13:23:05;50.78;38.05;76.08;;
37223;Laerm;28026;48.562;14.440;2022-07-31T13:25:36;53.09;37.70;81.45;;
37223;Laerm;28026;48.562;14.440;2022-07-31T13:28:07;53.04;36.45;83.04;;
37223;Laerm;28026;48.562;14.440;2022-07-31T13:30:38;45.03;37.52;66.89;;
37223;Laerm;28026;48.562;14.440;2022-07-31T13:33:10;45.14;36.91;74.21;;
37223;Laerm;28026;48.562;14.440;2022-07-31T13:35:41;43.28;36.34;66.04;;
37223;Laerm;28026;48.562;14.440;2022-07-31T13:38:12;45.64;37.70;71.11;;
37223;Laerm;28026;48.562;14.440;2022-07-31T13:40:44;66.83;37.12;96.32;;
37223;Laerm;28026;48.562;14.440;2022-07-31T13:43:33;45.56;36.91;66.95;;
37223;Laerm;28026;48.562;14.440;2022-07-31T13:46:04;44.31;37.70;65.13;;
37223;Laerm;28026;48.562;14.440;2022-07-31T13:48:35;58.70;36.45;84.08;;
37223;Laerm;28026;48.562;14.440;2022-07-31T13:51:06;42.88;36.45;68.21;;
37223;Laerm;28026;48.562;14.440;2022-07-31T13:53:37;43.63;36.91;69.94;;
37223;Laerm;28026;48.562;14.440;2022-07-31T13:56:08;64.01;39.34;92.15;;
37223;Laerm;28026;48.562;14.440;2022-07-31T13:58:40;58.75;38.52;86.34;;
37223;Laerm;28026;48.562;14.440;2022-07-31T14:01:12;49.75;38.37;74.76;;
37223;Laerm;28026;48.562;14.440;2022-07-31T14:03:42;50.72;38.81;75.40;;
37223;Laerm;28026;48.562;14.440;2022-07-31T14:06:13;48.25;38.18;75.08;;
37223;Laerm;28026;48.562;14.440;2022-07-31T14:08:44;54.89;37.12;79.43;;
37223;Laerm;28026;48.562;14.440;2022-07-31T14:11:15;56.00;38.21;85.83;;
37223;Laerm;28026;48.562;14.440;2022-07-31T14:13:46;54.11;38.52;82.07;;
37223;Laerm;28026;48.562;14.440;2022-07-31T14:16:17;51.68;38.21;75.43;;